createdAt,value
2017-08-26T00:01:45.322Z,92.10
2017-08-26T00:04:13.397Z,92.10
2017-08-26T00:06:41.478Z,91.90
2017-08-26T00:09:10.718Z,92.20
2017-08-26T00:11:38.798Z,92.40
2017-08-26T00:14:06.914Z,92.70
2017-08-26T00:16:34.994Z,92.70
2017-08-26T00:19:03.066Z,92.90
2017-08-26T00:21:31.157Z,92.70
2017-08-26T00:23:59.229Z,92.50
2017-08-26T00:26:27.379Z,92.50
2017-08-26T00:28:55.458Z,92.40
2017-08-26T00:31:23.930Z,92.30
2017-08-26T00:33:52.426Z,92.60
2017-08-26T00:36:20.510Z,92.50
2017-08-26T00:38:48.619Z,92.80
2017-08-26T00:41:16.701Z,93.20
2017-08-26T00:43:45.198Z,93.40
2017-08-26T00:46:13.278Z,93.50
2017-08-26T00:48:41.386Z,93.80
2017-08-26T00:51:09.475Z,93.60
2017-08-26T00:53:37.606Z,93.50
2017-08-26T00:56:06.082Z,93.70
2017-08-26T00:58:34.191Z,94.00
2017-08-26T01:01:02.282Z,94.30
2017-08-26T01:03:30.794Z,94.20
2017-08-26T01:05:59.278Z,94.20
2017-08-26T01:08:27.358Z,94.30
2017-08-26T01:10:55.871Z,94.30
2017-08-26T01:13:23.966Z,94.30
2017-08-26T01:15:52.810Z,94.10
2017-08-26T01:18:20.918Z,94.10
2017-08-26T01:20:49.003Z,94.20
2017-08-26T01:23:17.106Z,94.20
2017-08-26T01:25:45.958Z,94.50
2017-08-26T01:28:14.043Z,94.50
2017-08-26T01:30:42.163Z,94.70
2017-08-26T01:33:10.647Z,94.70
2017-08-26T01:35:38.730Z,94.90
2017-08-26T01:38:06.843Z,95.00
2017-08-26T01:40:34.939Z,94.80
2017-08-26T01:43:03.054Z,94.90
2017-08-26T01:45:31.151Z,94.90
2017-08-26T01:47:59.244Z,94.80
2017-08-26T01:50:27.371Z,95.10
2017-08-26T01:52:55.467Z,94.90
2017-08-26T01:55:24.346Z,95.00
2017-08-26T01:57:52.434Z,94.70
2017-08-26T02:00:20.527Z,94.90
2017-08-26T02:02:48.636Z,94.80
2017-08-26T02:05:16.723Z,94.80
2017-08-26T02:07:44.836Z,94.90
2017-08-26T02:10:12.948Z,95.00
2017-08-26T02:12:41.031Z,95.00
2017-08-26T02:15:09.914Z,95.10
2017-08-26T02:17:38.030Z,95.10
2017-08-26T02:20:06.510Z,95.10
2017-08-26T02:22:34.644Z,95.10
2017-08-26T02:25:02.728Z,95.40
2017-08-26T02:27:30.847Z,94.80
2017-08-26T02:29:58.933Z,94.90
2017-08-26T02:32:27.031Z,95.10
2017-08-26T02:34:55.139Z,95.10
2017-08-26T02:37:23.266Z,95.10
2017-08-26T02:39:51.340Z,95.10
2017-08-26T02:42:19.428Z,94.90
2017-08-26T02:44:47.558Z,94.70
2017-08-26T02:47:15.657Z,95.00
2017-08-26T02:49:43.731Z,94.10
2017-08-26T02:52:11.836Z,94.10
2017-08-26T02:54:39.927Z,94.30
2017-08-26T02:57:08.875Z,94.10
2017-08-26T02:59:36.925Z,93.90
2017-08-26T03:02:05.007Z,94.10
2017-08-26T03:04:33.106Z,94.00
2017-08-26T03:07:01.187Z,94.30
2017-08-26T03:09:29.691Z,94.50
2017-08-26T03:11:57.794Z,94.30
2017-08-26T03:14:26.311Z,94.60
2017-08-26T03:16:54.391Z,94.60
2017-08-26T03:19:22.471Z,94.40
2017-08-26T03:21:50.571Z,94.40
2017-08-26T03:24:18.642Z,94.60
2017-08-26T03:26:46.743Z,94.60
2017-08-26T03:29:14.836Z,93.20
2017-08-26T03:31:42.928Z,93.00
2017-08-26T03:34:11.001Z,93.30
2017-08-26T03:36:39.094Z,93.50
2017-08-26T03:39:07.949Z,92.80
2017-08-26T03:41:36.030Z,92.80
2017-08-26T03:44:04.130Z,93.20
2017-08-26T03:46:32.207Z,93.00
2017-08-26T03:49:00.306Z,93.60
2017-08-26T03:51:28.381Z,93.80
2017-08-26T03:53:56.476Z,93.40
2017-08-26T03:56:24.538Z,93.30
2017-08-26T03:58:52.635Z,93.60
2017-08-26T04:01:20.738Z,93.40
2017-08-26T04:03:48.818Z,93.70
2017-08-26T04:06:16.878Z,93.30
2017-08-26T04:08:44.974Z,93.60
2017-08-26T04:11:13.071Z,93.30
2017-08-26T04:13:41.150Z,93.60
2017-08-26T04:16:10.054Z,93.10
2017-08-26T04:18:38.082Z,93.20
2017-08-26T04:21:06.190Z,93.10
2017-08-26T04:23:34.259Z,93.20
2017-08-26T04:26:02.758Z,93.10
2017-08-26T04:28:30.839Z,92.70
2017-08-26T04:30:59.683Z,92.50
2017-08-26T04:33:28.179Z,92.60
2017-08-26T04:35:57.023Z,92.60
2017-08-26T04:38:25.515Z,92.30
2017-08-26T04:40:53.596Z,92.60
2017-08-26T04:43:22.089Z,92.30
2017-08-26T04:45:50.988Z,92.00
2017-08-26T04:48:19.050Z,92.30
2017-08-26T04:50:47.127Z,92.20
2017-08-26T04:53:15.243Z,92.30
2017-08-26T04:55:43.315Z,91.80
2017-08-26T04:58:11.453Z,92.00
2017-08-26T05:00:39.507Z,92.20
2017-08-26T05:03:07.582Z,92.20
2017-08-26T05:05:35.674Z,92.30
2017-08-26T05:08:03.755Z,92.40
2017-08-26T05:10:31.848Z,91.70
2017-08-26T05:12:59.923Z,91.60
2017-08-26T05:15:28.019Z,91.70
2017-08-26T05:17:56.114Z,91.50
2017-08-26T05:20:24.950Z,91.40
2017-08-26T05:22:53.426Z,91.80
2017-08-26T05:25:21.526Z,91.60
2017-08-26T05:27:49.607Z,91.50
2017-08-26T05:30:17.715Z,91.70
2017-08-26T05:32:45.806Z,91.60
2017-08-26T05:35:13.888Z,91.80
2017-08-26T05:37:41.995Z,91.80
2017-08-26T05:40:10.467Z,91.70
2017-08-26T05:42:38.543Z,92.20
2017-08-26T05:45:07.406Z,92.50
2017-08-26T05:47:35.492Z,92.30
2017-08-26T05:50:03.568Z,92.60
2017-08-26T05:52:31.675Z,92.50
2017-08-26T05:54:59.755Z,92.30
2017-08-26T05:57:27.875Z,92.30
2017-08-26T05:59:56.345Z,92.20
2017-08-26T06:02:24.428Z,92.10
2017-08-26T06:04:52.531Z,92.50
2017-08-26T06:07:21.403Z,92.70
2017-08-26T06:09:49.483Z,92.20
2017-08-26T06:12:18.340Z,91.90
2017-08-26T06:14:46.434Z,91.80
2017-08-26T06:17:14.537Z,91.30
2017-08-26T06:19:42.650Z,90.70
2017-08-26T06:22:10.760Z,90.90
2017-08-26T06:24:38.866Z,91.00
2017-08-26T06:27:07.359Z,90.50
2017-08-26T06:29:35.474Z,89.30
2017-08-26T06:32:03.564Z,89.20
2017-08-26T06:34:31.646Z,89.80
2017-08-26T06:37:00.575Z,88.20
2017-08-26T06:39:28.630Z,86.70
2017-08-26T06:41:56.719Z,87.40
2017-08-26T06:44:24.831Z,85.10
2017-08-26T06:46:52.931Z,85.20
2017-08-26T06:49:21.767Z,84.50
2017-08-26T06:51:49.850Z,83.90
2017-08-26T06:54:17.952Z,84.20
2017-08-26T06:56:46.058Z,82.00
2017-08-26T06:59:14.939Z,82.40
2017-08-26T07:01:43.033Z,83.30
2017-08-26T07:04:11.143Z,84.50
2017-08-26T07:06:39.255Z,85.20
2017-08-26T07:09:07.354Z,83.00
2017-08-26T07:11:35.443Z,83.60
2017-08-26T07:14:03.550Z,83.50
2017-08-26T07:16:32.039Z,78.50
2017-08-26T07:19:00.150Z,81.10
2017-08-26T07:21:28.251Z,78.50
2017-08-26T07:23:56.343Z,79.30
2017-08-26T07:26:24.870Z,79.20
2017-08-26T07:28:54.009Z,79.80
2017-08-26T07:31:22.091Z,77.30
2017-08-26T07:33:50.203Z,78.10
2017-08-26T07:36:18.292Z,71.40
2017-08-26T07:38:46.398Z,72.10
2017-08-26T07:41:14.511Z,71.20
2017-08-26T07:43:42.986Z,72.40
2017-08-26T07:46:11.487Z,67.40
2017-08-26T07:48:39.578Z,66.50
2017-08-26T07:51:07.682Z,65.10
2017-08-26T07:53:36.194Z,66.10
2017-08-26T07:56:05.064Z,68.40
2017-08-26T07:58:33.186Z,69.00
2017-08-26T08:01:01.266Z,67.30
2017-08-26T08:03:29.355Z,69.20
2017-08-26T08:05:57.850Z,69.50
2017-08-26T08:08:25.950Z,68.80
2017-08-26T08:10:54.060Z,64.20
2017-08-26T08:13:22.158Z,63.20
2017-08-26T08:15:50.676Z,61.80
2017-08-26T08:18:19.179Z,61.70
2017-08-26T08:20:47.287Z,61.70
2017-08-26T08:23:15.399Z,62.20
2017-08-26T08:25:43.491Z,62.30
2017-08-26T08:28:11.599Z,63.10
2017-08-26T08:30:39.687Z,61.60
2017-08-26T08:33:07.790Z,61.50
2017-08-26T08:35:35.876Z,62.10
2017-08-26T08:38:04.741Z,61.80
2017-08-26T08:40:32.872Z,61.80
2017-08-26T08:43:00.959Z,59.30
2017-08-26T08:45:29.041Z,59.90
2017-08-26T08:47:57.151Z,59.50
2017-08-26T08:50:25.255Z,60.20
2017-08-26T08:52:53.735Z,58.00
2017-08-26T08:55:21.839Z,58.50
2017-08-26T08:57:49.927Z,57.40
2017-08-26T09:00:18.026Z,59.10
2017-08-26T09:02:46.115Z,58.00
2017-08-26T09:05:14.232Z,59.40
2017-08-26T09:07:42.319Z,60.10
2017-08-26T09:10:10.397Z,60.80
2017-08-26T09:12:38.502Z,61.90
2017-08-26T09:15:06.624Z,61.40
2017-08-26T09:17:34.706Z,61.60
2017-08-26T09:20:02.795Z,59.50
2017-08-26T09:22:31.671Z,62.00
2017-08-26T09:24:59.778Z,60.70
2017-08-26T09:27:27.882Z,59.90
2017-08-26T09:29:55.981Z,59.20
2017-08-26T09:32:24.088Z,59.30
2017-08-26T09:34:52.190Z,61.60
2017-08-26T09:37:20.279Z,61.10
2017-08-26T09:39:48.526Z,61.70
2017-08-26T09:42:16.606Z,61.70
2017-08-26T09:44:44.691Z,62.20
2017-08-26T09:47:13.230Z,62.80
2017-08-26T09:49:41.324Z,63.80
2017-08-26T09:52:09.422Z,63.10
2017-08-26T09:54:37.527Z,62.40
2017-08-26T09:57:06.387Z,65.10
2017-08-26T09:59:34.487Z,64.70
2017-08-26T10:02:02.599Z,64.80
2017-08-26T10:04:30.704Z,61.60
2017-08-26T10:06:58.795Z,55.10
2017-08-26T10:09:26.908Z,55.90
2017-08-26T10:11:54.995Z,56.10
2017-08-26T10:14:23.103Z,51.90
2017-08-26T10:16:51.611Z,49.20
2017-08-26T10:19:19.731Z,49.70
2017-08-26T10:21:47.824Z,51.20
2017-08-26T10:24:15.928Z,51.80
2017-08-26T10:26:44.020Z,48.80
2017-08-26T10:29:12.143Z,46.50
2017-08-26T10:31:40.231Z,46.90
2017-08-26T10:34:08.322Z,46.90
2017-08-26T10:36:37.198Z,44.60
2017-08-26T10:39:05.681Z,43.20
2017-08-26T10:41:35.242Z,43.50
2017-08-26T10:44:03.351Z,45.00
2017-08-26T10:46:31.459Z,46.80
2017-08-26T10:48:59.542Z,45.00
2017-08-26T10:51:27.646Z,46.00
2017-08-26T10:53:55.747Z,44.60
2017-08-26T10:56:23.855Z,41.10
2017-08-26T10:58:51.954Z,41.90
2017-08-26T11:01:20.469Z,39.00
2017-08-26T11:03:48.551Z,37.20
2017-08-26T11:06:17.102Z,36.90
2017-08-26T11:08:45.159Z,37.30
2017-08-26T11:11:13.239Z,37.60
2017-08-26T11:13:41.354Z,36.10
2017-08-26T11:16:10.207Z,33.30
2017-08-26T11:18:38.282Z,33.10
2017-08-26T11:21:06.782Z,33.20
2017-08-26T11:23:34.868Z,32.80
2017-08-26T11:26:03.338Z,32.20
2017-08-26T11:28:31.442Z,33.60
2017-08-26T11:30:59.586Z,34.00
2017-08-26T11:33:27.675Z,33.40
2017-08-26T11:35:55.766Z,32.60
2017-08-26T11:38:23.879Z,32.50
2017-08-26T11:40:51.958Z,33.40
2017-08-26T11:43:20.071Z,34.00
2017-08-26T11:45:48.551Z,33.00
2017-08-26T11:48:17.414Z,33.60
2017-08-26T11:50:45.513Z,33.60
2017-08-26T11:53:13.604Z,32.40
2017-08-26T11:55:41.710Z,33.10
2017-08-26T11:58:09.791Z,32.70
2017-08-26T12:00:37.915Z,33.50
2017-08-26T12:03:06.767Z,31.80
2017-08-26T12:05:34.854Z,30.70
2017-08-26T12:08:02.955Z,31.30
2017-08-26T12:10:31.043Z,31.50
2017-08-26T12:12:59.143Z,32.80
2017-08-26T12:15:27.246Z,31.60
2017-08-26T12:17:55.755Z,30.80
2017-08-26T12:20:23.865Z,30.50
2017-08-26T12:22:51.943Z,30.20
2017-08-26T12:25:20.051Z,30.50
2017-08-26T12:27:48.131Z,31.60
2017-08-26T12:30:16.240Z,32.10
2017-08-26T12:32:44.328Z,30.50
2017-08-26T12:35:12.430Z,29.30
2017-08-26T12:37:40.519Z,29.90
2017-08-26T12:40:09.054Z,29.00
2017-08-26T12:42:37.123Z,28.00
2017-08-26T12:45:05.634Z,28.90
2017-08-26T12:47:33.710Z,29.30
2017-08-26T12:50:01.822Z,29.00
2017-08-26T12:52:29.927Z,30.10
2017-08-26T12:54:58.023Z,28.00
2017-08-26T12:57:26.098Z,28.80
2017-08-26T12:59:54.202Z,29.40
2017-08-26T13:02:22.283Z,29.60
2017-08-26T13:04:50.378Z,29.80
2017-08-26T13:07:18.474Z,29.40
2017-08-26T13:09:46.555Z,29.50
2017-08-26T13:12:14.662Z,29.80
2017-08-26T13:14:42.742Z,30.00
2017-08-26T13:17:10.814Z,28.40
2017-08-26T13:19:38.910Z,28.20
2017-08-26T13:22:07.027Z,28.00
2017-08-26T13:24:35.102Z,26.80
2017-08-26T13:27:03.173Z,26.20
2017-08-26T13:29:31.278Z,26.50
2017-08-26T13:31:59.359Z,27.40
2017-08-26T13:34:27.434Z,28.70
2017-08-26T13:36:55.551Z,29.10
2017-08-26T13:39:23.627Z,26.80
2017-08-26T13:41:51.707Z,27.40
2017-08-26T13:44:19.802Z,27.90
2017-08-26T13:46:48.262Z,32.90
2017-08-26T13:49:16.354Z,32.50
2017-08-26T13:51:44.847Z,34.60
2017-08-26T13:54:12.942Z,35.00
2017-08-26T13:56:41.018Z,34.90
2017-08-26T13:59:09.515Z,35.60
2017-08-26T14:01:37.899Z,36.00
2017-08-26T14:04:05.975Z,36.80
2017-08-26T14:06:34.056Z,36.30
2017-08-26T14:09:02.551Z,36.90
2017-08-26T14:11:30.647Z,37.50
2017-08-26T14:13:58.747Z,36.90
2017-08-26T14:16:26.827Z,38.40
2017-08-26T14:18:55.413Z,38.20
2017-08-26T14:21:23.443Z,38.40
2017-08-26T14:23:51.514Z,38.50
2017-08-26T14:26:20.381Z,40.20
2017-08-26T14:28:48.471Z,40.30
2017-08-26T14:31:17.331Z,40.30
2017-08-26T14:33:45.408Z,40.10
2017-08-26T14:36:14.256Z,41.00
2017-08-26T14:38:42.362Z,41.50
2017-08-26T14:41:10.835Z,40.00
2017-08-26T14:43:38.915Z,40.50
2017-08-26T14:46:07.480Z,39.50
2017-08-26T14:48:35.530Z,40.10
2017-08-26T14:51:03.635Z,37.20
2017-08-26T14:53:31.719Z,31.90
2017-08-26T14:56:00.279Z,29.10
2017-08-26T14:58:29.098Z,29.10
2017-08-26T15:00:57.190Z,29.00
2017-08-26T15:03:26.047Z,27.10
2017-08-26T15:05:54.516Z,25.70
2017-08-26T15:08:22.615Z,26.20
2017-08-26T15:10:50.695Z,24.10
2017-08-26T15:13:18.795Z,24.60
2017-08-26T15:15:46.900Z,25.00
2017-08-26T15:18:15.004Z,23.60
2017-08-26T15:20:43.087Z,23.50
2017-08-26T15:23:11.162Z,23.90
2017-08-26T15:25:39.278Z,23.30
2017-08-26T15:28:07.350Z,24.50
2017-08-26T15:30:35.435Z,22.40
2017-08-26T15:33:03.530Z,22.80
2017-08-26T15:35:31.605Z,22.70
2017-08-26T15:37:59.683Z,22.00
2017-08-26T15:40:27.782Z,22.20
2017-08-26T15:42:55.858Z,22.30
2017-08-26T15:45:24.351Z,23.10
2017-08-26T15:47:52.427Z,23.50
2017-08-26T15:50:20.537Z,23.30
2017-08-26T15:52:48.610Z,23.90
2017-08-26T15:55:16.682Z,23.20
2017-08-26T15:57:44.779Z,23.90
2017-08-26T16:00:12.859Z,25.00
2017-08-26T16:02:40.994Z,25.40
2017-08-26T16:05:09.071Z,25.50
2017-08-26T16:07:37.147Z,25.40
2017-08-26T16:10:05.234Z,24.70
2017-08-26T16:12:33.332Z,25.30
2017-08-26T16:15:01.447Z,25.60
2017-08-26T16:17:29.531Z,26.30
2017-08-26T16:19:58.103Z,26.30
2017-08-26T16:22:26.935Z,26.60
2017-08-26T16:24:55.011Z,26.60
2017-08-26T16:27:23.099Z,27.30
2017-08-26T16:29:51.204Z,28.60
2017-08-26T16:32:19.270Z,29.70
2017-08-26T16:34:47.383Z,30.30
2017-08-26T16:37:15.456Z,32.10
2017-08-26T16:39:43.545Z,32.10
2017-08-26T16:42:12.080Z,32.30
2017-08-26T16:44:40.127Z,32.70
2017-08-26T16:47:08.227Z,33.40
2017-08-26T16:49:36.306Z,34.70
2017-08-26T16:52:04.422Z,35.10
2017-08-26T16:54:32.505Z,36.00
2017-08-26T16:57:00.580Z,36.60
2017-08-26T16:59:28.675Z,37.40
2017-08-26T17:01:56.743Z,37.60
2017-08-26T17:04:24.851Z,37.90
2017-08-26T17:06:52.927Z,38.40
2017-08-26T17:09:21.015Z,39.50
2017-08-26T17:11:49.135Z,40.10
2017-08-26T17:14:17.219Z,40.30
2017-08-26T17:16:45.294Z,39.70
2017-08-26T17:19:13.386Z,40.00
2017-08-26T17:21:41.498Z,39.80
2017-08-26T17:24:09.574Z,40.80
2017-08-26T17:26:38.435Z,40.60
2017-08-26T17:29:06.515Z,41.10
2017-08-26T17:31:35.026Z,41.00
2017-08-26T17:34:03.109Z,41.50
2017-08-26T17:36:31.197Z,41.20
2017-08-26T17:38:59.291Z,41.80
2017-08-26T17:41:27.375Z,42.20
2017-08-26T17:43:55.515Z,42.40
2017-08-26T17:46:23.996Z,42.10
2017-08-26T17:48:52.079Z,42.70
2017-08-26T17:51:20.571Z,42.60
2017-08-26T17:53:49.050Z,43.10
2017-08-26T17:56:17.618Z,43.50
2017-08-26T17:58:45.692Z,44.10
2017-08-26T18:01:13.767Z,44.70
2017-08-26T18:03:41.851Z,45.00
2017-08-26T18:06:10.416Z,49.30
2017-08-26T18:08:38.455Z,47.80
2017-08-26T18:11:06.581Z,48.00
2017-08-26T18:13:34.686Z,48.00
2017-08-26T18:16:03.625Z,48.40
2017-08-26T18:18:32.499Z,48.60
2017-08-26T18:21:01.350Z,47.60
2017-08-26T18:23:29.440Z,48.10
2017-08-26T18:25:58.315Z,48.40
2017-08-26T18:28:26.436Z,47.90
2017-08-26T18:30:54.511Z,47.90
2017-08-26T18:33:22.609Z,48.50
2017-08-26T18:35:50.716Z,48.30
2017-08-26T18:38:19.207Z,49.20
2017-08-26T18:40:47.317Z,48.40
2017-08-26T18:43:15.917Z,48.50
2017-08-26T18:45:43.968Z,48.50
2017-08-26T18:48:12.882Z,48.50
2017-08-26T18:50:40.983Z,48.60
2017-08-26T18:53:09.068Z,49.50
2017-08-26T18:55:37.207Z,50.00
2017-08-26T18:58:05.302Z,50.20
2017-08-26T19:00:33.389Z,50.60
2017-08-26T19:03:01.858Z,50.80
2017-08-26T19:05:29.992Z,51.70
2017-08-26T19:07:58.079Z,52.90
2017-08-26T19:10:26.170Z,53.60
2017-08-26T19:12:54.291Z,54.10
2017-08-26T19:15:22.384Z,55.10
2017-08-26T19:17:50.471Z,56.40
2017-08-26T19:20:19.375Z,57.60
2017-08-26T19:22:47.525Z,58.30
2017-08-26T19:25:15.610Z,58.80
2017-08-26T19:27:43.696Z,59.80
2017-08-26T19:30:12.686Z,61.30
2017-08-26T19:32:40.773Z,61.30
2017-08-26T19:35:08.859Z,62.00
2017-08-26T19:37:36.983Z,62.50
2017-08-26T19:40:05.076Z,63.00
2017-08-26T19:42:33.146Z,62.80
2017-08-26T19:45:02.184Z,63.20
2017-08-26T19:47:30.256Z,61.80
2017-08-26T19:49:58.372Z,62.10
2017-08-26T19:52:26.460Z,61.50
2017-08-26T19:54:54.550Z,61.10
2017-08-26T19:57:23.055Z,60.40
2017-08-26T19:59:51.134Z,60.80
2017-08-26T20:02:19.282Z,59.90
2017-08-26T20:04:47.371Z,60.40
2017-08-26T20:07:15.849Z,58.50
2017-08-26T20:09:43.958Z,58.40
2017-08-26T20:12:12.038Z,57.70
2017-08-26T20:14:40.159Z,57.90
2017-08-26T20:17:09.005Z,57.20
2017-08-26T20:19:37.082Z,56.90
2017-08-26T20:22:06.045Z,57.20
2017-08-26T20:24:34.111Z,57.80
2017-08-26T20:27:03.003Z,56.50
2017-08-26T20:29:31.507Z,55.50
2017-08-26T20:32:00.366Z,56.60
2017-08-26T20:34:28.482Z,56.00
2017-08-26T20:36:56.571Z,57.30
2017-08-26T20:39:25.418Z,59.00
2017-08-26T20:41:53.526Z,58.60
2017-08-26T20:44:22.011Z,58.30
2017-08-26T20:46:50.135Z,58.10
2017-08-26T20:49:18.218Z,57.80
2017-08-26T20:51:46.311Z,58.50
2017-08-26T20:54:14.417Z,58.70
2017-08-26T20:56:42.904Z,58.60
2017-08-26T20:59:11.018Z,59.10
2017-08-26T21:01:39.102Z,59.70
2017-08-26T21:04:07.186Z,60.30
2017-08-26T21:06:35.740Z,59.50
2017-08-26T21:09:04.542Z,60.90
2017-08-26T21:11:32.646Z,60.90
2017-08-26T21:14:00.732Z,60.20
2017-08-26T21:16:28.845Z,61.50
2017-08-26T21:18:56.927Z,62.20
2017-08-26T21:21:25.010Z,62.90
2017-08-26T21:23:53.132Z,64.70
2017-08-26T21:26:21.627Z,65.30
2017-08-26T21:28:50.474Z,65.90
2017-08-26T21:31:18.595Z,66.20
2017-08-26T21:33:46.678Z,67.70
2017-08-26T21:36:15.534Z,67.90
2017-08-26T21:38:44.041Z,68.00
2017-08-26T21:41:12.118Z,69.90
2017-08-26T21:43:40.211Z,70.50
2017-08-26T21:46:09.192Z,70.60
2017-08-26T21:48:37.240Z,71.10
2017-08-26T21:51:05.355Z,72.20
2017-08-26T21:53:33.452Z,72.90
2017-08-26T21:56:02.313Z,73.30
2017-08-26T21:58:30.426Z,73.70
2017-08-26T22:00:59.364Z,73.90
2017-08-26T22:03:27.807Z,74.30
2017-08-26T22:05:56.020Z,74.90
2017-08-26T22:08:24.103Z,75.70
2017-08-26T22:10:52.195Z,75.70
2017-08-26T22:13:20.686Z,75.60
2017-08-26T22:15:48.814Z,75.30
2017-08-26T22:18:16.907Z,76.00
2017-08-26T22:20:45.004Z,76.50
2017-08-26T22:23:13.963Z,76.60
2017-08-26T22:25:42.015Z,76.80
2017-08-26T22:28:10.862Z,77.10
2017-08-26T22:30:38.977Z,77.40
2017-08-26T22:33:07.058Z,79.00
2017-08-26T22:35:35.175Z,79.90
2017-08-26T22:38:03.267Z,80.70
2017-08-26T22:40:31.362Z,82.10
2017-08-26T22:42:59.480Z,81.20
2017-08-26T22:45:27.562Z,81.00
2017-08-26T22:47:55.654Z,80.80
2017-08-26T22:50:24.535Z,82.50
2017-08-26T22:52:52.656Z,82.60
2017-08-26T22:55:20.750Z,83.10
2017-08-26T22:57:48.830Z,82.70
2017-08-26T23:00:16.940Z,82.30
2017-08-26T23:02:45.022Z,82.50
2017-08-26T23:05:13.223Z,82.90
2017-08-26T23:07:41.306Z,82.80
2017-08-26T23:10:09.395Z,83.70
2017-08-26T23:12:37.503Z,84.40
2017-08-26T23:15:05.590Z,85.00
2017-08-26T23:17:33.704Z,83.70
2017-08-26T23:20:01.811Z,83.70
2017-08-26T23:22:30.662Z,84.90
2017-08-26T23:24:58.772Z,84.80
2017-08-26T23:27:27.632Z,86.60
2017-08-26T23:29:56.151Z,85.40
2017-08-26T23:32:28.679Z,86.00
2017-08-26T23:34:56.794Z,85.00
2017-08-26T23:37:25.651Z,85.50
2017-08-26T23:39:53.743Z,85.90
2017-08-26T23:42:21.854Z,86.60
2017-08-26T23:44:49.938Z,87.20
2017-08-26T23:47:18.044Z,86.90
2017-08-26T23:49:46.142Z,86.90
2017-08-26T23:52:14.308Z,86.60
2017-08-26T23:54:42.395Z,87.20
2017-08-26T23:57:11.298Z,87.60
2017-08-26T23:59:39.416Z,87.30
